Time;durP1;ratioP1;P1;durP2;ratioP2;P2;SDS_P1;SDS_P2;PMS_P1;PMS_P2;Temp;Humidity;BMP_temperature;BMP_pressure;BME280_temperature;BME280_humidity;BME280_pressure;Samples;Min_cycle;Max_cycle;Signal;HPM_P1;HPM_P2
2021/05/01 00:00:05;;;;;;;137.38;57.75;;;4.60;99.90;;;;;;5074157;28;20490;-69
2021/05/01 00:02:30;;;;;;;135.23;59.65;;;4.60;99.90;;;;;;5074454;28;20107;-69
2021/05/01 00:04:56;;;;;;;137.57;56.80;;;4.70;99.90;;;;;;5074437;28;20103;-69
2021/05/01 00:07:22;;;;;;;143.93;60.42;;;4.70;99.90;;;;;;5074686;28;20024;-69
2021/05/01 00:09:47;;;;;;;148.15;60.65;;;4.80;99.90;;;;;;5074620;28;20104;-69
2021/05/01 00:12:13;;;;;;;146.32;61.10;;;4.80;99.90;;;;;;5073978;28;20033;-69
2021/05/01 00:14:39;;;;;;;138.38;58.38;;;4.90;99.90;;;;;;5072721;28;20036;-69
2021/05/01 00:17:05;;;;;;;147.68;62.08;;;4.90;99.90;;;;;;5073055;28;20055;-69
2021/05/01 00:19:31;;;;;;;148.85;64.85;;;4.90;99.90;;;;;;5074402;28;20048;-69
2021/05/01 00:21:56;;;;;;;139.90;60.05;;;5.00;99.90;;;;;;5074159;28;20020;-69
2021/05/01 00:24:22;;;;;;;139.90;59.40;;;5.10;99.90;;;;;;5074131;28;20025;-69
2021/05/01 00:26:47;;;;;;;145.60;59.47;;;5.10;99.90;;;;;;5074324;28;20335;-69
2021/05/01 00:29:13;;;;;;;141.15;58.25;;;5.20;99.90;;;;;;5074309;28;20033;-69
2021/05/01 00:31:38;;;;;;;134.75;59.80;;;5.20;99.90;;;;;;5073009;28;20039;-69
2021/05/01 00:34:04;;;;;;;130.48;58.20;;;5.20;99.90;;;;;;5074286;28;20036;-69
2021/05/01 00:36:30;;;;;;;128.63;56.20;;;5.30;99.90;;;;;;5073981;28;20028;-69
2021/05/01 00:38:57;;;;;;;126.35;55.08;;;5.30;99.90;;;;;;5074096;28;20028;-69
2021/05/01 00:41:22;;;;;;;118.78;54.92;;;5.30;99.90;;;;;;5074206;28;20027;-69
2021/05/01 00:43:49;;;;;;;120.80;54.97;;;5.30;99.90;;;;;;5074185;28;20020;-69
2021/05/01 00:46:14;;;;;;;126.05;52.75;;;5.30;99.90;;;;;;5073603;28;20028;-69
2021/05/01 00:48:40;;;;;;;116.78;52.08;;;5.30;99.90;;;;;;5073850;28;20092;-69
2021/05/01 00:51:06;;;;;;;119.45;54.60;;;5.40;99.90;;;;;;5074064;28;20028;-69
2021/05/01 00:53:32;;;;;;;112.88;52.00;;;5.40;99.90;;;;;;5074049;28;20548;-69
2021/05/01 00:55:59;;;;;;;117.10;55.53;;;5.40;99.90;;;;;;5073319;28;20020;-69
2021/05/01 00:58:25;;;;;;;125.57;57.28;;;5.50;99.90;;;;;;5073850;28;20055;-70
2021/05/01 01:01:10;;;;;;;119.00;55.47;;;5.50;99.90;;;;;;5072489;28;20044;-69
2021/05/01 01:03:38;;;;;;;116.95;53.10;;;5.50;99.90;;;;;;5072681;28;20462;-69
2021/05/01 01:06:05;;;;;;;123.05;55.25;;;5.50;99.90;;;;;;5072737;28;20023;-69
2021/05/01 01:08:31;;;;;;;116.43;54.80;;;5.50;99.90;;;;;;5073918;28;20016;-69
2021/05/01 01:10:56;;;;;;;124.60;56.05;;;5.50;99.90;;;;;;5073878;28;20366;-69
2021/05/01 01:13:23;;;;;;;126.65;58.90;;;5.50;99.90;;;;;;5073572;28;20039;-69
2021/05/01 01:15:49;;;;;;;127.55;57.90;;;5.60;99.90;;;;;;5073816;28;20016;-69
2021/05/01 01:18:15;;;;;;;149.27;63.63;;;5.60;99.90;;;;;;5073504;28;20032;-69
2021/05/01 01:20:41;;;;;;;134.77;61.90;;;5.60;99.90;;;;;;5073673;28;20024;-69
2021/05/01 01:23:07;;;;;;;135.32;59.38;;;5.60;99.90;;;;;;5073450;28;20377;-69
2021/05/01 01:25:33;;;;;;;130.15;59.40;;;5.60;99.90;;;;;;5073695;28;20024;-69
2021/05/01 01:27:59;;;;;;;133.70;59.97;;;5.60;99.90;;;;;;5073438;28;20029;-69
2021/05/01 01:30:28;;;;;;;137.00;64.43;;;5.70;99.90;;;;;;5073415;28;20116;-69
2021/05/01 01:32:54;;;;;;;131.45;61.50;;;5.70;99.90;;;;;;5073646;28;20020;-69
2021/05/01 01:35:21;;;;;;;125.30;59.42;;;5.70;99.90;;;;;;5073371;28;20127;-69
2021/05/01 01:37:47;;;;;;;127.45;59.80;;;5.70;99.90;;;;;;5073635;28;20482;-69
2021/05/01 01:40:14;;;;;;;131.35;60.88;;;5.70;99.90;;;;;;5072970;28;20527;-69
2021/05/01 01:42:41;;;;;;;130.88;58.95;;;5.80;99.90;;;;;;5073549;28;20450;-69
2021/05/01 01:45:09;;;;;;;124.15;58.55;;;5.80;99.90;;;;;;5073277;28;20020;-69
2021/05/01 01:47:34;;;;;;;124.53;57.45;;;5.80;99.90;;;;;;5073498;28;20454;-69
2021/05/01 01:50:00;;;;;;;121.20;58.15;;;5.90;99.90;;;;;;5073525;28;20036;-69
2021/05/01 01:52:26;;;;;;;124.28;57.63;;;5.90;99.90;;;;;;5073204;28;20059;-69
2021/05/01 01:54:51;;;;;;;116.05;54.63;;;5.90;99.90;;;;;;5072880;28;20028;-69
2021/05/01 01:57:17;;;;;;;114.88;56.47;;;6.00;99.90;;;;;;5073434;28;20214;-69
2021/05/01 01:59:43;;;;;;;121.53;55.33;;;6.00;99.90;;;;;;5072872;28;20044;-69
2021/05/01 02:02:09;;;;;;;118.05;53.83;;;6.00;99.90;;;;;;5073109;28;20048;-69
2021/05/01 02:04:35;;;;;;;112.97;54.03;;;6.00;99.90;;;;;;5072800;28;20027;-69
2021/05/01 02:07:00;;;;;;;113.85;53.25;;;6.10;99.90;;;;;;5074393;28;20021;-69
2021/05/01 02:09:26;;;;;;;118.78;53.38;;;6.00;99.90;;;;;;5076945;28;20100;-69
2021/05/01 02:11:52;;;;;;;114.32;54.72;;;6.10;99.90;;;;;;5075753;28;20343;-69
2021/05/01 02:14:18;;;;;;;119.93;53.92;;;6.00;99.90;;;;;;5076856;28;20035;-69
2021/05/01 02:16:43;;;;;;;115.50;54.45;;;6.00;99.90;;;;;;5076249;28;20461;-69
2021/05/01 02:19:09;;;;;;;115.15;54.30;;;6.10;99.90;;;;;;5074977;28;20032;-69
2021/05/01 02:21:35;;;;;;;116.97;54.63;;;6.10;99.90;;;;;;5058159;28;20063;-69
2021/05/01 02:24:00;;;;;;;115.70;54.28;;;6.10;99.90;;;;;;5076690;28;20074;-69
2021/05/01 02:26:26;;;;;;;111.72;53.83;;;6.10;99.90;;;;;;5076058;28;20031;-70
2021/05/01 02:28:52;;;;;;;121.45;56.28;;;6.10;99.90;;;;;;5075441;28;20446;-69
2021/05/01 02:31:18;;;;;;;120.03;54.72;;;6.20;99.90;;;;;;5076548;28;20056;-69
2021/05/01 02:33:43;;;;;;;118.40;55.10;;;6.20;99.90;;;;;;5076225;28;20105;-69
2021/05/01 02:36:09;;;;;;;119.13;55.40;;;6.30;99.90;;;;;;5076525;28;20032;-69
2021/05/01 02:38:35;;;;;;;117.85;56.33;;;6.30;99.90;;;;;;5076458;28;20465;-69
2021/05/01 02:41:00;;;;;;;118.82;56.38;;;6.40;99.90;;;;;;5076366;28;20461;-69
2021/05/01 02:43:26;;;;;;;118.75;57.72;;;6.30;99.90;;;;;;5076355;28;20046;-69
2021/05/01 02:45:51;;;;;;;113.35;56.28;;;6.30;99.90;;;;;;5076319;28;20378;-69
2021/05/01 02:48:17;;;;;;;122.50;57.10;;;6.40;99.90;;;;;;5076254;28;20036;-69
2021/05/01 02:50:43;;;;;;;124.03;59.88;;;6.40;99.90;;;;;;5076220;28;20030;-69
2021/05/01 02:53:10;;;;;;;127.03;60.47;;;6.40;99.90;;;;;;5076191;28;20446;-69
2021/05/01 02:55:35;;;;;;;127.20;60.22;;;6.40;99.90;;;;;;5074418;28;20051;-69
2021/05/01 02:58:01;;;;;;;121.65;60.08;;;6.40;99.90;;;;;;5076083;28;20419;-69
2021/05/01 03:00:27;;;;;;;121.68;58.55;;;6.50;99.90;;;;;;5075303;28;20123;-69
2021/05/01 03:02:54;;;;;;;114.55;57.78;;;6.50;99.90;;;;;;5076017;28;20021;-69
2021/05/01 03:05:20;;;;;;;112.95;59.35;;;6.50;99.90;;;;;;5075621;28;20024;-69
2021/05/01 03:07:46;;;;;;;121.40;58.67;;;6.50;99.90;;;;;;5075604;28;20493;-69
2021/05/01 03:10:16;;;;;;;116.50;58.95;;;6.50;99.90;;;;;;5075846;28;20056;-69
2021/05/01 03:12:41;;;;;;;114.68;57.55;;;6.50;99.90;;;;;;5075794;28;20055;-69
2021/05/01 03:15:09;;;;;;;123.22;59.47;;;6.50;99.90;;;;;;5075708;28;20064;-69
2021/05/01 03:17:35;;;;;;;119.85;59.67;;;6.50;99.90;;;;;;5075680;28;20517;-69
2021/05/01 03:20:01;;;;;;;120.88;58.10;;;6.60;99.90;;;;;;5075536;28;20115;-69
2021/05/01 03:22:27;;;;;;;116.63;58.95;;;6.60;99.90;;;;;;5075563;28;20094;-69
2021/05/01 03:24:54;;;;;;;127.05;61.63;;;6.60;99.90;;;;;;5075548;28;20465;-69
2021/05/01 03:27:20;;;;;;;120.90;58.45;;;6.60;99.90;;;;;;5074942;28;20017;-69
2021/05/01 03:29:45;;;;;;;117.47;59.55;;;6.60;99.90;;;;;;5075411;28;20021;-69
2021/05/01 03:32:11;;;;;;;118.70;60.25;;;6.60;99.90;;;;;;5075391;28;20031;-69
2021/05/01 03:34:36;;;;;;;119.35;59.63;;;6.60;99.90;;;;;;5075286;28;20025;-69
2021/05/01 03:37:02;;;;;;;117.50;58.88;;;6.60;99.90;;;;;;5074743;28;20104;-69
2021/05/01 03:39:27;;;;;;;118.00;59.42;;;6.60;99.90;;;;;;5075147;28;20028;-69
2021/05/01 03:41:53;;;;;;;117.57;58.90;;;6.60;99.90;;;;;;5073356;28;20042;-69
2021/05/01 03:44:19;;;;;;;116.03;58.60;;;6.70;99.90;;;;;;5075142;28;20484;-69
2021/05/01 03:46:44;;;;;;;127.53;60.67;;;6.70;99.90;;;;;;5074826;28;20517;-69
2021/05/01 03:49:10;;;;;;;117.93;57.83;;;6.70;99.90;;;;;;5074767;28;20021;-69
2021/05/01 03:51:35;;;;;;;119.05;60.42;;;6.70;99.90;;;;;;5074709;28;20355;-69
2021/05/01 03:54:01;;;;;;;117.15;60.22;;;6.70;99.90;;;;;;5074922;28;20025;-69
2021/05/01 03:56:27;;;;;;;125.75;62.20;;;6.70;99.90;;;;;;5074884;28;20021;-69
2021/05/01 03:58:52;;;;;;;118.88;60.20;;;6.60;99.90;;;;;;5074586;28;20056;-69
2021/05/01 04:01:18;;;;;;;116.50;58.67;;;6.70;99.90;;;;;;5074742;28;20374;-69
2021/05/01 04:03:43;;;;;;;120.50;60.75;;;6.80;99.90;;;;;;5074751;28;20013;-69
2021/05/01 04:06:09;;;;;;;119.47;61.50;;;6.70;99.90;;;;;;5074743;28;20471;-69
2021/05/01 04:08:37;;;;;;;122.10;60.72;;;6.70;99.90;;;;;;5074361;28;20016;-69
2021/05/01 04:11:03;;;;;;;122.05;61.88;;;6.70;99.90;;;;;;5074038;28;20098;-69
2021/05/01 04:13:29;;;;;;;120.18;60.85;;;6.70;99.90;;;;;;5074587;28;20450;-69
2021/05/01 04:15:54;;;;;;;117.53;61.05;;;6.80;99.90;;;;;;5074539;28;20031;-69
2021/05/01 04:18:21;;;;;;;116.40;59.80;;;6.80;99.90;;;;;;5074545;28;20037;-69
2021/05/01 04:20:47;;;;;;;120.07;60.53;;;6.70;99.90;;;;;;5074387;28;20027;-70
2021/05/01 04:23:12;;;;;;;118.45;61.20;;;6.70;99.90;;;;;;5074424;28;20453;-69
2021/05/01 04:25:38;;;;;;;129.95;61.75;;;6.70;99.90;;;;;;5073846;28;20042;-69
2021/05/01 04:28:05;;;;;;;119.75;62.40;;;6.70;99.90;;;;;;5074361;28;20017;-70
2021/05/01 04:30:31;;;;;;;124.45;62.13;;;6.70;99.90;;;;;;5072355;28;20063;-69
2021/05/01 04:32:56;;;;;;;122.93;60.65;;;6.70;99.90;;;;;;5074328;28;20167;-70
2021/05/01 04:35:22;;;;;;;121.93;61.08;;;6.70;99.90;;;;;;5074304;28;20059;-70
2021/05/01 04:37:48;;;;;;;119.55;59.30;;;6.70;99.90;;;;;;5074258;28;20370;-70
2021/05/01 04:40:14;;;;;;;113.95;58.58;;;6.80;99.90;;;;;;5074125;28;20366;-70
2021/05/01 04:42:47;;;;;;;112.18;58.67;;;6.90;99.90;;;;;;5074167;28;20027;-69
2021/05/01 04:45:15;;;;;;;111.32;57.67;;;6.90;99.90;;;;;;5073625;28;20099;-70
2021/05/01 04:47:41;;;;;;;113.63;57.40;;;6.90;99.90;;;;;;5073883;28;20465;-70
2021/05/01 04:50:07;;;;;;;116.13;56.65;;;6.90;99.90;;;;;;5074094;28;20028;-70
2021/05/01 04:52:32;;;;;;;101.32;54.35;;;6.90;99.90;;;;;;5074081;28;20060;-69
2021/05/01 04:55:01;;;;;;;101.97;53.88;;;7.00;99.90;;;;;;5074056;28;20024;-70
2021/05/01 04:57:27;;;;;;;97.28;52.33;;;7.10;99.90;;;;;;5073453;28;20422;-70
2021/05/01 04:59:52;;;;;;;103.68;51.20;;;7.10;99.90;;;;;;5071938;28;20148;-69
2021/05/01 05:02:18;;;;;;;99.32;51.53;;;7.10;99.90;;;;;;5073442;28;20031;-70
2021/05/01 05:04:43;;;;;;;95.97;50.03;;;7.20;99.90;;;;;;5072157;28;20024;-69
2021/05/01 05:07:09;;;;;;;93.53;48.88;;;7.20;99.90;;;;;;5073934;28;20024;-69
2021/05/01 05:09:34;;;;;;;93.97;51.78;;;7.20;99.90;;;;;;5073908;28;20024;-69
2021/05/01 05:12:00;;;;;;;95.65;50.72;;;7.30;99.90;;;;;;5073901;28;20036;-69
2021/05/01 05:14:25;;;;;;;101.70;52.15;;;7.30;99.90;;;;;;5073867;28;20514;-69
2021/05/01 05:16:51;;;;;;;90.47;48.75;;;7.30;99.90;;;;;;5073307;28;20048;-70
2021/05/01 05:19:16;;;;;;;86.25;47.72;;;7.40;99.90;;;;;;5071987;28;20028;-69
2021/05/01 05:21:42;;;;;;;82.80;46.92;;;7.50;99.90;;;;;;5073541;28;20028;-69
2021/05/01 05:24:07;;;;;;;93.72;51.55;;;7.50;99.90;;;;;;5073770;28;20032;-70
2021/05/01 05:26:33;;;;;;;95.93;52.20;;;7.50;99.90;;;;;;5073444;28;20421;-70
2021/05/01 05:28:58;;;;;;;88.30;49.58;;;7.50;99.90;;;;;;5071953;28;20542;-69
2021/05/01 05:31:24;;;;;;;112.60;64.05;;;7.60;99.90;;;;;;5073682;28;20024;-70
2021/05/01 05:33:49;;;;;;;92.63;50.08;;;7.60;99.90;;;;;;5073688;28;20063;-69
2021/05/01 05:36:15;;;;;;;85.30;48.45;;;7.60;99.90;;;;;;5073642;28;20051;-70
2021/05/01 05:38:40;;;;;;;90.93;50.25;;;7.60;99.90;;;;;;5073631;28;20073;-70
2021/05/01 05:41:06;;;;;;;96.32;50.92;;;7.60;99.90;;;;;;5073525;28;20365;-70
2021/05/01 05:43:33;;;;;;;92.82;49.95;;;7.60;99.90;;;;;;5077157;28;20465;-70
2021/05/01 05:46:11;;;;;;;93.10;52.03;;;7.60;99.90;;;;;;5077130;28;20489;-69
2021/05/01 05:48:36;;;;;;;93.00;49.40;;;7.70;99.90;;;;;;5077070;28;20028;-69
2021/05/01 05:51:02;;;;;;;87.47;49.10;;;7.80;99.90;;;;;;5077031;28;20025;-70
2021/05/01 05:53:28;;;;;;;89.55;50.10;;;7.90;99.90;;;;;;5077219;28;20369;-69
2021/05/01 05:55:53;;;;;;;89.55;50.72;;;8.00;99.90;;;;;;5077192;28;20032;-69
2021/05/01 05:58:19;;;;;;;86.53;46.75;;;7.90;99.90;;;;;;5077181;28;20024;-70
2021/05/01 06:00:45;;;;;;;90.05;48.78;;;7.90;99.90;;;;;;5076365;28;20486;-70
2021/05/01 06:03:11;;;;;;;90.68;49.80;;;8.00;99.90;;;;;;5077093;28;20060;-70
2021/05/01 06:05:41;;;;;;;88.75;51.47;;;8.10;99.90;;;;;;5075603;28;20086;-70
2021/05/01 06:08:07;;;;;;;86.28;50.15;;;8.00;99.90;;;;;;5075561;28;20481;-69
2021/05/01 06:10:34;;;;;;;82.97;46.63;;;7.90;99.90;;;;;;5075502;28;20115;-70
2021/05/01 06:13:03;;;;;;;87.20;46.05;;;7.90;99.90;;;;;;5075108;28;20025;-69
2021/05/01 06:15:28;;;;;;;86.88;48.20;;;7.90;99.90;;;;;;5076755;28;20481;-69
2021/05/01 06:17:57;;;;;;;87.97;44.22;;;7.90;99.90;;;;;;5076794;28;20032;-69
2021/05/01 06:20:23;;;;;;;84.43;44.72;;;8.00;99.90;;;;;;5074929;28;20093;-69
2021/05/01 06:22:50;;;;;;;80.85;43.80;;;8.00;99.90;;;;;;5076437;28;20036;-70
2021/05/01 06:25:16;;;;;;;80.72;45.88;;;8.20;99.90;;;;;;5076413;28;20032;-70
2021/05/01 06:27:42;;;;;;;75.13;43.33;;;8.30;99.90;;;;;;5075231;28;20077;-70
2021/05/01 06:30:10;;;;;;;76.75;44.47;;;8.40;99.90;;;;;;5076340;28;20024;-70
2021/05/01 06:32:36;;;;;;;75.13;43.63;;;8.50;99.90;;;;;;5076015;28;20214;-70
2021/05/01 06:35:02;;;;;;;70.93;42.70;;;8.60;99.90;;;;;;5076533;28;20024;-70
2021/05/01 06:37:28;;;;;;;71.32;41.33;;;8.60;99.90;;;;;;5075029;28;20039;-70
2021/05/01 06:39:56;;;;;;;74.90;41.28;;;8.60;99.90;;;;;;5075195;28;20078;-70
2021/05/01 06:42:28;;;;;;;70.13;40.65;;;8.70;99.90;;;;;;5074722;28;20020;-70
2021/05/01 06:45:06;;;;;;;70.32;42.08;;;8.90;99.90;;;;;;5076078;28;20025;-70
2021/05/01 06:47:32;;;;;;;65.28;40.33;;;9.30;99.90;;;;;;5076310;28;20028;-70
2021/05/01 06:50:09;;;;;;;57.30;35.78;;;9.70;99.90;;;;;;5074436;28;20028;-70
2021/05/01 06:52:39;;;;;;;58.38;35.30;;;10.00;99.90;;;;;;5075781;28;20072;-70
2021/05/01 06:55:06;;;;;;;58.33;35.30;;;10.10;99.90;;;;;;5076152;28;20111;-70
2021/05/01 06:57:32;;;;;;;60.20;36.08;;;9.90;99.90;;;;;;5076111;28;20021;-70
2021/05/01 06:59:59;;;;;;;52.22;32.65;;;9.90;99.90;;;;;;5075459;28;20044;-70
2021/05/01 07:02:28;;;;;;;52.95;34.25;;;9.90;99.90;;;;;;5075737;28;20027;-70
2021/05/01 07:04:55;;;;;;;54.72;33.50;;;10.20;99.90;;;;;;5075692;28;20035;-70
2021/05/01 07:07:23;;;;;;;56.92;33.92;;;10.40;99.90;;;;;;5074474;28;20025;-70
2021/05/01 07:09:49;;;;;;;53.58;31.35;;;10.90;99.90;;;;;;5075860;28;20027;-70
2021/05/01 07:12:17;;;;;;;48.08;31.23;;;11.80;99.90;;;;;;5075813;28;20551;-70
2021/05/01 07:14:43;;;;;;;51.15;31.50;;;11.90;99.90;;;;;;5075762;28;20024;-70
2021/05/01 07:17:09;;;;;;;49.38;32.15;;;12.10;99.90;;;;;;5075135;28;20029;-70
2021/05/01 07:19:34;;;;;;;52.17;31.98;;;11.90;99.90;;;;;;5073788;28;20035;-70
2021/05/01 07:22:00;;;;;;;48.92;31.88;;;11.90;99.90;;;;;;5075343;28;20057;-70
2021/05/01 07:24:27;;;;;;;47.88;32.85;;;11.50;99.90;;;;;;5075553;28;20074;-70
2021/05/01 07:26:55;;;;;;;52.38;33.28;;;11.30;99.90;;;;;;5075504;28;20357;-70
2021/05/01 07:29:23;;;;;;;45.65;30.80;;;11.20;99.90;;;;;;5075182;28;20107;-70
2021/05/01 07:31:50;;;;;;;46.05;30.45;;;11.10;99.90;;;;;;5075132;28;20484;-70
2021/05/01 07:34:21;;;;;;;46.03;29.77;;;10.50;99.90;;;;;;5075324;28;20031;-70
2021/05/01 07:36:50;;;;;;;50.40;30.17;;;10.50;99.90;;;;;;5075329;28;20021;-70
2021/05/01 07:39:16;;;;;;;47.10;30.85;;;10.50;99.90;;;;;;5075201;28;20041;-70
2021/05/01 07:41:45;;;;;;;96.30;53.15;;;10.60;99.90;;;;;;5075192;28;20024;-70
2021/05/01 07:44:12;;;;;;;91.70;46.83;;;11.60;99.90;;;;;;5074898;28;20017;-70
2021/05/01 07:46:39;;;;;;;48.60;32.50;;;12.10;99.90;;;;;;5075079;28;20484;-70
2021/05/01 07:49:08;;;;;;;44.35;27.80;;;11.90;99.90;;;;;;5075034;28;20021;-70
2021/05/01 07:51:35;;;;;;;42.85;27.42;;;11.60;99.90;;;;;;5075021;28;20027;-70
2021/05/01 07:54:02;;;;;;;47.97;30.90;;;11.20;99.90;;;;;;5074949;28;20482;-70
2021/05/01 07:56:28;;;;;;;43.33;28.67;;;10.90;99.90;;;;;;5074916;28;20082;-70
2021/05/01 07:58:55;;;;;;;47.60;29.38;;;10.80;99.90;;;;;;5074573;28;20587;-70
2021/05/01 08:01:21;;;;;;;37.83;27.15;;;11.60;99.90;;;;;;5074487;28;20025;-70
2021/05/01 08:03:47;;;;;;;42.97;28.77;;;11.90;99.90;;;;;;5074646;28;20017;-70
2021/05/01 08:06:13;;;;;;;40.30;28.80;;;11.80;99.90;;;;;;5073975;28;20032;-70
2021/05/01 08:08:39;;;;;;;42.33;27.20;;;11.70;99.90;;;;;;5072900;28;20115;-70
2021/05/01 08:11:04;;;;;;;37.85;26.10;;;11.90;99.90;;;;;;5074651;28;20032;-70
2021/05/01 08:13:30;;;;;;;42.53;27.17;;;12.60;99.90;;;;;;5074606;28;20032;-70
2021/05/01 08:15:56;;;;;;;40.65;27.42;;;12.00;99.90;;;;;;5072743;28;20021;-70
2021/05/01 08:18:22;;;;;;;37.22;26.73;;;12.40;99.90;;;;;;5074211;28;20059;-70
2021/05/01 08:20:49;;;;;;;36.92;27.45;;;13.00;99.90;;;;;;5074448;28;20063;-70
2021/05/01 08:23:15;;;;;;;36.97;25.55;;;14.00;99.90;;;;;;5074479;28;20017;-70
2021/05/01 08:25:41;;;;;;;39.08;26.90;;;14.10;99.90;;;;;;5074427;28;20477;-70
2021/05/01 08:28:06;;;;;;;38.00;26.95;;;13.60;99.90;;;;;;5073266;28;20527;-70
2021/05/01 08:30:32;;;;;;;36.05;24.63;;;14.30;99.90;;;;;;5073825;28;20052;-70
2021/05/01 08:32:58;;;;;;;35.30;24.73;;;15.00;99.90;;;;;;5074066;28;20366;-70
2021/05/01 08:35:23;;;;;;;33.05;23.95;;;14.90;99.90;;;;;;5073694;28;20036;-70
2021/05/01 08:37:49;;;;;;;30.75;22.17;;;15.20;99.90;;;;;;5074275;28;20149;-70
2021/05/01 08:40:15;;;;;;;88.97;52.90;;;15.10;99.90;;;;;;5073864;28;20473;-70
2021/05/01 08:42:46;;;;;;;37.95;25.50;;;15.40;99.90;;;;;;5074184;28;20013;-70
2021/05/01 08:45:13;;;;;;;37.53;26.65;;;15.80;99.90;;;;;;5074157;28;20027;-70
2021/05/01 08:47:41;;;;;;;42.03;25.80;;;15.00;99.90;;;;;;5073852;28;20108;-70
2021/05/01 08:50:30;;;;;;;34.60;26.05;;;14.80;99.90;;;;;;5074413;28;20074;-70
2021/05/01 08:52:58;;;;;;;35.67;25.63;;;13.90;99.90;;;;;;5072326;28;20031;-70
2021/05/01 08:55:26;;;;;;;43.45;34.80;;;13.10;99.90;;;;;;5073793;28;20374;-70
2021/05/01 08:57:52;;;;;;;47.83;34.28;;;12.50;99.90;;;;;;5073711;28;20033;-70
2021/05/01 09:00:19;;;;;;;47.85;33.55;;;12.30;99.90;;;;;;5073207;28;20048;-70
2021/05/01 09:02:45;;;;;;;39.13;29.65;;;12.10;99.90;;;;;;5073660;28;20017;-70
2021/05/01 09:05:12;;;;;;;41.70;28.48;;;12.30;99.90;;;;;;5073982;28;20039;-70
2021/05/01 09:08:58;;;;;;;;;;;;;;;;;;;;;
2021/05/01 09:11:04;;;;;;;33.60;22.50;;;13.10;99.90;;;;;;5073070;28;20060;-70
2021/05/01 09:13:49;;;;;;;31.80;23.95;;;13.80;99.90;;;;;;5073823;28;20507;-70
2021/05/01 09:16:16;;;;;;;33.50;24.52;;;15.30;99.90;;;;;;5075128;28;20056;-71
2021/05/01 09:18:54;;;;;;;33.95;24.17;;;15.30;99.90;;;;;;5077700;28;20023;-71
2021/05/01 09:21:22;;;;;;;32.05;23.35;;;14.30;99.90;;;;;;5059719;28;20028;-71
2021/05/01 09:23:48;;;;;;;30.35;22.38;;;13.60;99.90;;;;;;5077909;28;20020;-70
2021/05/01 09:26:18;;;;;;;33.03;22.50;;;13.00;99.90;;;;;;5077827;28;20501;-70
2021/05/01 09:28:50;;;;;;;29.45;21.85;;;12.90;99.90;;;;;;5077536;28;20362;-70
2021/05/01 09:31:17;;;;;;;32.30;22.05;;;13.40;99.90;;;;;;5076648;28;20025;-70
2021/05/01 09:33:47;;;;;;;29.05;22.02;;;14.30;99.90;;;;;;5077136;28;20103;-70
2021/05/01 09:36:18;;;;;;;27.17;19.83;;;15.60;99.90;;;;;;5077666;28;20097;-70
2021/05/01 09:38:47;;;;;;;25.77;19.30;;;16.20;99.50;;;;;;5076060;28;20039;-71
2021/05/01 09:41:19;;;;;;;24.77;20.52;;;16.60;97.80;;;;;;5077211;28;20027;-71
2021/05/01 09:44:14;;;;;;;20.67;17.13;;;16.30;98.10;;;;;;5075728;28;20023;-71
2021/05/01 09:52:01;;;;;;;22.83;19.00;;;17.40;94.10;;;;;;5112168;27;20347;-71
2021/05/01 09:54:30;;;;;;;26.40;19.70;;;16.00;97.70;;;;;;5111994;28;20020;-71
2021/05/01 09:56:59;;;;;;;24.58;19.55;;;15.00;99.90;;;;;;5111293;28;20027;-71
2021/05/01 09:59:48;;;;;;;25.80;19.65;;;14.70;99.90;;;;;;5111302;28;20477;-71
2021/05/01 10:02:20;;;;;;;24.67;18.02;;;14.70;99.90;;;;;;5111542;28;20418;-72
2021/05/01 10:05:09;;;;;;;24.30;17.77;;;15.70;99.90;;;;;;5111798;28;20016;-71
2021/05/01 10:07:39;;;;;;;26.33;19.15;;;16.10;99.00;;;;;;5111613;28;20020;-71
2021/05/01 10:10:05;;;;;;;23.42;18.85;;;15.10;99.90;;;;;;5111379;28;20089;-71
2021/05/01 10:12:36;;;;;;;24.90;17.90;;;14.60;99.90;;;;;;5111672;28;20090;-71
2021/05/01 10:15:12;;;;;;;19.98;16.00;;;15.60;99.90;;;;;;5111337;28;20081;-71
2021/05/01 10:17:38;;;;;;;22.02;16.15;;;16.30;96.20;;;;;;5110491;28;20103;-71
2021/05/01 10:20:06;;;;;;;19.48;15.45;;;16.80;93.80;;;;;;5111557;28;20499;-72
2021/05/01 10:22:37;;;;;;;19.55;15.10;;;17.50;92.70;;;;;;5111176;28;20024;-71
2021/05/01 10:25:20;;;;;;;22.10;15.38;;;17.50;90.00;;;;;;5111422;28;20600;-71
2021/05/01 10:27:58;;;;;;;20.17;15.95;;;17.70;84.80;;;;;;5109929;28;20123;-72
2021/05/01 10:30:33;;;;;;;19.52;15.75;;;17.30;81.10;;;;;;5111138;28;20352;-72
2021/05/01 10:33:23;;;;;;;18.23;15.32;;;16.90;80.00;;;;;;5110697;28;20024;-71
2021/05/01 10:36:26;;;;;;;17.55;14.32;;;17.30;74.40;;;;;;5109865;28;20064;-71
2021/05/01 10:39:10;;;;;;;21.73;14.40;;;16.30;80.20;;;;;;5110503;28;20020;-71
2021/05/01 10:41:36;;;;;;;;;;;15.80;84.10;;;;;;5109674;28;20055;-71
2021/05/01 10:44:04;;;;;;;20.00;15.27;;;15.90;86.70;;;;;;5109586;28;19957;-71
2021/05/01 10:46:32;;;;;;;17.02;12.75;;;15.60;85.30;;;;;;5109225;28;20023;-71
2021/05/01 10:49:00;;;;;;;16.92;13.60;;;15.70;75.20;;;;;;5110953;28;20023;-71
2021/05/01 10:51:29;;;;;;;19.42;13.70;;;15.70;74.40;;;;;;5110146;28;20404;-71
2021/05/01 10:54:18;;;;;;;16.33;12.77;;;16.10;73.50;;;;;;5110865;28;20019;-71
2021/05/01 10:56:46;;;;;;;15.80;12.25;;;16.10;70.00;;;;;;5110707;28;20023;-70
2021/05/01 10:59:14;;;;;;;18.15;12.20;;;16.00;67.30;;;;;;5110719;28;20020;-71
2021/05/01 11:01:47;;;;;;;22.08;15.80;;;15.50;69.10;;;;;;5105902;28;20031;-71
2021/05/01 11:04:20;;;;;;;24.08;15.93;;;14.80;94.10;;;;;;5097120;28;20028;-71
2021/05/01 11:06:50;;;;;;;21.20;14.93;;;15.20;95.40;;;;;;5096452;28;20020;-71
2021/05/01 11:09:43;;;;;;;19.42;14.05;;;15.10;96.90;;;;;;5096955;28;20090;-71
2021/05/01 11:12:11;;;;;;;15.38;12.38;;;14.80;93.40;;;;;;5096675;28;20035;-71
2021/05/01 11:14:45;;;;;;;17.55;13.30;;;14.80;89.10;;;;;;5096286;28;20052;-71
2021/05/01 11:17:21;;;;;;;18.13;13.43;;;14.40;91.30;;;;;;5096816;28;20024;-71
2021/05/01 11:19:47;;;;;;;15.73;11.23;;;14.40;94.60;;;;;;5096449;28;20028;-71
2021/05/01 11:22:15;;;;;;;15.68;10.20;;;14.50;88.10;;;;;;5096686;28;20024;-71
2021/05/01 11:24:43;;;;;;;14.88;10.65;;;14.40;82.00;;;;;;5077957;28;20540;-71
2021/05/01 11:27:09;;;;;;;13.85;10.70;;;14.60;80.50;;;;;;5096580;28;20031;-71
2021/05/01 11:29:35;;;;;;;10.50;9.35;;;14.90;74.40;;;;;;5096195;28;20016;-71
2021/05/01 11:32:02;;;;;;;9.07;8.10;;;15.60;77.70;;;;;;5096153;28;20020;-71
2021/05/01 11:34:31;;;;;;;9.98;8.75;;;15.70;60.60;;;;;;5096158;28;20016;-71
2021/05/01 11:37:01;;;;;;;10.73;9.13;;;15.10;57.00;;;;;;5095258;28;20019;-71
2021/05/01 11:39:28;;;;;;;11.40;8.65;;;15.00;61.20;;;;;;5094580;28;20024;-66
2021/05/01 11:41:55;;;;;;;15.15;9.60;;;15.20;63.00;;;;;;5096236;28;20146;-65
2021/05/01 11:44:23;;;;;;;12.52;9.57;;;15.30;61.40;;;;;;5096218;28;20036;-66
2021/05/01 11:47:09;;;;;;;10.93;7.97;;;15.10;62.60;;;;;;5094764;28;20054;-66
2021/05/01 11:49:35;;;;;;;13.57;9.35;;;15.30;66.30;;;;;;5095563;28;20020;-66
2021/05/01 11:55:17;;;;;;;15.63;10.95;;;15.40;69.40;;;;;;5112108;27;20749;-66
2021/05/01 11:57:44;;;;;;;;;;;16.10;69.70;;;;;;5112469;28;20111;-66
2021/05/01 12:00:11;;;;;;;16.08;11.77;;;15.90;71.20;;;;;;5111924;28;19907;-66
2021/05/01 12:02:41;;;;;;;13.63;10.35;;;15.20;73.40;;;;;;5111640;28;20016;-66
2021/05/01 12:05:19;;;;;;;13.82;9.75;;;15.50;73.30;;;;;;5111856;28;20028;-66
2021/05/01 12:07:50;;;;;;;10.27;8.88;;;15.60;71.10;;;;;;5111757;28;20469;-65
2021/05/01 12:10:18;;;;;;;10.10;8.13;;;16.20;68.80;;;;;;5110128;28;20156;-66
2021/05/01 12:12:50;;;;;;;11.95;8.93;;;16.30;58.10;;;;;;5111004;28;20028;-66
2021/05/01 12:15:17;;;;;;;10.48;8.35;;;16.00;61.20;;;;;;5111626;28;20111;-66
2021/05/01 12:17:52;;;;;;;12.85;9.00;;;16.20;56.50;;;;;;5111552;28;20016;-66
2021/05/01 12:20:19;;;;;;;12.23;8.50;;;16.20;58.90;;;;;;5111497;28;20342;-66
2021/05/01 12:22:45;;;;;;;10.30;8.63;;;16.10;60.10;;;;;;5111449;28;20529;-66
2021/05/01 12:25:33;;;;;;;11.23;8.77;;;15.90;59.60;;;;;;5111447;28;20062;-65
2021/05/01 12:27:59;;;;;;;10.95;9.50;;;15.60;63.60;;;;;;5109397;28;20357;-66
2021/05/01 12:30:47;;;;;;;10.70;9.13;;;15.90;72.10;;;;;;5111004;28;20103;-66
2021/05/01 12:36:07;;;;;;;11.35;8.90;;;16.60;71.00;;;;;;5112286;27;20347;-66
2021/05/01 12:38:35;;;;;;;10.45;8.45;;;16.90;57.30;;;;;;5111820;28;20024;-66
2021/05/01 12:43:49;;;;;;;12.45;9.20;;;16.90;57.00;;;;;;5110902;27;20382;-66
2021/05/01 12:48:55;;;;;;;9.07;6.55;;;16.70;53.10;;;;;;5112266;27;20457;-66
2021/05/01 12:51:24;;;;;;;12.85;7.70;;;16.70;52.50;;;;;;5111637;28;20020;-66